createdAt,value
2023-02-15T00:01:36.319Z,27.63
2023-02-15T00:04:03.811Z,26.92
2023-02-15T00:06:30.467Z,24.55
2023-02-15T00:09:01.142Z,21.85
2023-02-15T00:11:27.843Z,23.13
2023-02-15T00:14:02.781Z,20.85
2023-02-15T00:16:29.259Z,20.80
2023-02-15T00:18:59.829Z,23.55
2023-02-15T00:21:26.271Z,20.63
2023-02-15T00:23:53.134Z,20.27
2023-02-15T00:26:22.151Z,25.73
2023-02-15T00:28:55.696Z,23.08
2023-02-15T00:31:22.178Z,19.85
2023-02-15T00:33:57.680Z,21.23
2023-02-15T00:36:24.311Z,22.13
2023-02-15T00:38:55.432Z,19.40
2023-02-15T00:41:22.829Z,20.13
2023-02-15T00:43:49.442Z,21.55
2023-02-15T00:46:20.914Z,23.17
2023-02-15T00:48:50.518Z,22.73
2023-02-15T00:51:33.357Z,23.13
2023-02-15T00:54:04.882Z,21.02
2023-02-15T00:56:31.780Z,18.27
2023-02-15T00:58:59.507Z,18.92
2023-02-15T01:01:26.620Z,17.25
2023-02-15T01:03:53.567Z,16.67
2023-02-15T01:06:20.124Z,18.13
2023-02-15T01:09:03.598Z,17.50
2023-02-15T01:11:39.346Z,15.18
2023-02-15T01:14:06.148Z,15.90
2023-02-15T01:16:34.138Z,16.48
2023-02-15T01:19:03.748Z,15.23
2023-02-15T01:21:36.075Z,17.20
2023-02-15T01:24:02.582Z,16.02
2023-02-15T01:26:32.710Z,15.73
2023-02-15T01:29:00.475Z,15.77
2023-02-15T01:31:28.307Z,14.60
2023-02-15T01:33:54.818Z,13.73
2023-02-15T01:36:21.706Z,12.38
2023-02-15T01:38:51.945Z,12.35
2023-02-15T01:41:25.785Z,13.65
2023-02-15T01:43:52.333Z,13.97
2023-02-15T01:46:21.333Z,13.63
2023-02-15T01:51:34.458Z,13.17
2023-02-15T01:54:12.173Z,13.45
2023-02-15T01:56:42.694Z,13.60
2023-02-15T01:59:19.073Z,12.90
2023-02-15T02:01:51.417Z,12.88
2023-02-15T02:04:27.831Z,11.07
2023-02-15T02:06:57.345Z,12.48
2023-02-15T02:09:26.888Z,13.20
2023-02-15T02:12:02.052Z,13.23
2023-02-15T02:14:31.377Z,10.43
2023-02-15T02:17:01.741Z,12.10
2023-02-15T02:19:42.268Z,11.07
2023-02-15T02:22:10.078Z,12.90
2023-02-15T02:24:41.218Z,12.93
2023-02-15T02:27:23.435Z,13.68
2023-02-15T02:29:51.138Z,13.52
2023-02-15T02:32:32.093Z,13.07
2023-02-15T02:35:04.776Z,11.55
2023-02-15T02:37:37.348Z,11.23
2023-02-15T02:40:28.256Z,10.63
2023-02-15T02:42:58.509Z,12.55
2023-02-15T02:45:31.788Z,12.40
2023-02-15T02:48:04.797Z,11.98
2023-02-15T02:50:31.581Z,10.85
2023-02-15T02:55:52.902Z,10.23
2023-02-15T02:58:27.999Z,9.85
2023-02-15T03:01:01.170Z,8.00
2023-02-15T03:03:35.748Z,9.70
2023-02-15T03:08:45.718Z,9.95
2023-02-15T03:11:13.211Z,8.80
2023-02-15T03:13:41.049Z,9.18
2023-02-15T03:16:09.426Z,8.65
2023-02-15T03:18:42.664Z,8.93
2023-02-15T03:21:11.046Z,9.65
2023-02-15T03:23:38.890Z,10.30
2023-02-15T03:26:09.812Z,9.77
2023-02-15T03:28:49.015Z,11.30
2023-02-15T03:31:20.723Z,11.40
2023-02-15T03:34:03.304Z,9.75
2023-02-15T03:36:35.865Z,10.90
2023-02-15T03:39:20.176Z,11.40
2023-02-15T03:41:59.074Z,12.05
2023-02-15T03:44:30.181Z,10.23
2023-02-15T03:47:00.759Z,9.85
2023-02-15T03:49:43.138Z,10.07
2023-02-15T03:52:15.355Z,9.93
2023-02-15T03:54:46.800Z,9.60
2023-02-15T03:57:24.461Z,9.13
2023-02-15T03:59:52.181Z,8.80
2023-02-15T04:02:25.097Z,8.48
2023-02-15T04:04:55.201Z,10.15
2023-02-15T04:07:26.984Z,9.32
2023-02-15T04:09:53.772Z,11.40
2023-02-15T04:12:26.012Z,12.82
2023-02-15T04:14:52.428Z,12.73
2023-02-15T04:17:34.021Z,10.75
2023-02-15T04:20:01.336Z,10.38
2023-02-15T04:22:33.839Z,12.73
2023-02-15T04:27:32.908Z,13.60
2023-02-15T04:30:02.374Z,12.55
2023-02-15T04:32:29.046Z,10.82
2023-02-15T04:35:05.155Z,11.68
2023-02-15T04:37:32.413Z,11.77
2023-02-15T08:03:23.863Z,9.65
2023-02-15T08:05:54.021Z,9.75
2023-02-15T08:08:22.886Z,8.95
2023-02-15T08:10:52.296Z,9.55
2023-02-15T08:13:18.729Z,8.88
2023-02-15T08:15:51.615Z,9.30
2023-02-15T08:18:18.052Z,10.45
2023-02-15T08:20:49.856Z,10.20
2023-02-15T08:23:16.398Z,10.15
2023-02-15T08:25:46.297Z,10.38
2023-02-15T08:28:14.791Z,11.52
2023-02-15T08:30:41.275Z,10.15
2023-02-15T08:33:13.442Z,10.32
2023-02-15T08:35:50.395Z,12.30
2023-02-15T08:38:17.067Z,13.45
2023-02-15T08:40:43.588Z,14.15
2023-02-15T08:43:16.851Z,15.10
2023-02-15T08:45:56.946Z,14.27
2023-02-15T08:48:23.406Z,15.38
2023-02-15T08:50:57.613Z,13.52
2023-02-15T08:53:24.444Z,14.55
2023-02-15T08:56:03.825Z,14.40
2023-02-15T08:58:31.056Z,13.20
2023-02-15T09:01:30.411Z,14.45
2023-02-15T09:04:06.962Z,14.05
2023-02-15T09:06:33.618Z,14.77
2023-02-15T09:09:03.907Z,13.65
2023-02-15T09:11:31.682Z,12.90
2023-02-15T09:14:03.434Z,14.68
2023-02-15T09:16:30.895Z,17.98
2023-02-15T09:19:04.624Z,17.17
2023-02-15T09:21:31.486Z,17.17
2023-02-15T09:24:02.397Z,20.52
2023-02-15T09:26:33.436Z,21.08
2023-02-15T09:29:00.940Z,22.17
2023-02-15T09:31:31.995Z,25.35
2023-02-15T09:33:59.845Z,26.13
2023-02-15T09:36:31.508Z,23.85
2023-02-15T09:38:59.268Z,22.38
2023-02-15T09:41:50.232Z,23.73
2023-02-15T09:44:30.437Z,21.85
2023-02-15T09:47:02.704Z,21.10
2023-02-15T09:49:31.946Z,21.58
2023-02-15T09:52:22.109Z,19.33
2023-02-15T09:55:07.594Z,19.67
2023-02-15T09:57:41.104Z,16.83
2023-02-15T10:00:40.526Z,18.70
2023-02-15T10:03:16.175Z,18.40
2023-02-15T10:06:00.984Z,20.70
2023-02-15T10:11:08.166Z,20.25
2023-02-15T10:13:49.724Z,21.98
2023-02-15T10:16:36.117Z,22.50
2023-02-15T10:19:24.184Z,22.13
2023-02-15T10:22:01.776Z,23.73
2023-02-15T10:24:40.536Z,25.65
2023-02-15T10:27:12.228Z,25.00
2023-02-15T10:29:53.671Z,25.50
2023-02-15T10:32:24.184Z,25.75
2023-02-15T10:35:15.943Z,24.45
2023-02-15T10:38:09.579Z,24.63
2023-02-15T10:40:39.908Z,24.33
2023-02-15T10:43:09.136Z,24.00
2023-02-15T10:45:35.515Z,21.95
2023-02-15T10:48:08.671Z,22.30
2023-02-15T10:50:44.163Z,24.00
2023-02-15T10:53:38.601Z,23.13
2023-02-15T11:01:17.170Z,22.75
2023-02-15T11:03:50.140Z,22.52
2023-02-15T11:06:28.222Z,23.42
2023-02-15T11:08:56.995Z,24.60
2023-02-15T11:11:48.871Z,22.92
2023-02-15T11:14:35.932Z,23.23
2023-02-15T11:17:10.880Z,25.27
2023-02-15T11:19:40.112Z,25.63
2023-02-15T11:22:07.169Z,26.98
2023-02-15T11:24:38.553Z,25.55
2023-02-15T11:27:13.873Z,28.13
2023-02-15T11:29:49.265Z,26.92
2023-02-15T11:32:24.758Z,28.65
2023-02-15T11:35:11.549Z,29.08
2023-02-15T11:37:37.958Z,28.75
2023-02-15T11:40:14.442Z,27.45
2023-02-15T11:42:42.165Z,30.08
2023-02-15T11:45:19.442Z,30.10
2023-02-15T11:47:51.010Z,29.00
2023-02-15T11:50:32.958Z,30.08
2023-02-15T11:53:01.342Z,31.10
2023-02-15T11:55:28.268Z,28.80
2023-02-15T11:57:58.526Z,29.00
2023-02-15T12:00:28.121Z,30.98
2023-02-15T12:02:55.939Z,30.75
2023-02-15T12:05:24.808Z,31.33
2023-02-15T12:07:55.549Z,30.60
2023-02-15T12:10:51.592Z,31.45
2023-02-15T12:16:16.625Z,31.35
2023-02-15T12:18:46.200Z,29.13
2023-02-15T12:21:17.208Z,30.13
2023-02-15T12:23:47.630Z,30.77
2023-02-15T12:26:14.101Z,30.05
2023-02-15T12:28:50.752Z,31.75
2023-02-15T12:31:23.553Z,31.83
2023-02-15T12:33:51.834Z,32.00
2023-02-15T12:36:22.902Z,29.92
2023-02-15T12:39:16.336Z,31.35
2023-02-15T12:42:02.369Z,30.10
2023-02-15T12:44:35.768Z,31.95
2023-02-15T12:47:18.294Z,29.52
2023-02-15T12:49:48.278Z,27.73
2023-02-15T12:52:22.689Z,30.35
2023-02-15T12:54:55.695Z,30.27
2023-02-15T12:59:50.128Z,30.13
2023-02-15T13:02:27.395Z,31.70
2023-02-15T13:04:58.467Z,29.88
2023-02-15T13:07:26.445Z,30.55
2023-02-15T13:09:55.735Z,33.70
2023-02-15T13:12:27.253Z,32.33
2023-02-15T13:15:04.308Z,30.02
2023-02-15T13:17:37.742Z,29.25
2023-02-15T13:20:20.433Z,32.97
2023-02-15T13:22:50.187Z,31.50
2023-02-15T13:25:24.111Z,32.42
2023-02-15T13:27:53.587Z,33.40
2023-02-15T13:30:36.671Z,31.23
2023-02-15T13:33:12.916Z,30.63
2023-02-15T13:35:47.314Z,30.42
2023-02-15T13:38:40.019Z,33.42
2023-02-15T13:41:10.536Z,30.25
2023-02-15T13:43:41.743Z,29.58
2023-02-15T13:46:36.303Z,29.05
2023-02-15T13:49:25.972Z,30.10
2023-02-15T13:51:52.354Z,30.10
2023-02-15T13:54:34.329Z,30.10
2023-02-15T13:57:19.364Z,30.08
2023-02-15T14:02:42.906Z,28.15
2023-02-15T14:05:33.290Z,31.38
2023-02-15T14:08:18.159Z,29.70
2023-02-15T14:10:51.331Z,28.95
2023-02-15T14:13:23.514Z,29.10
2023-02-15T14:15:52.407Z,28.90
2023-02-15T14:18:42.598Z,32.28
2023-02-15T14:21:16.444Z,28.23
2023-02-15T14:23:53.298Z,28.08
2023-02-15T14:26:30.064Z,27.80
2023-02-15T14:29:00.378Z,27.70
2023-02-15T14:31:34.453Z,29.52
2023-02-15T14:34:09.287Z,29.15
2023-02-15T14:36:48.526Z,26.35
2023-02-15T14:39:14.902Z,29.48
2023-02-15T14:41:49.402Z,29.00
2023-02-15T14:44:24.489Z,28.50
2023-02-15T14:47:00.041Z,27.80
2023-02-15T14:49:27.770Z,29.00
2023-02-15T14:54:49.749Z,26.88
2023-02-15T14:57:19.517Z,28.27
2023-02-15T14:59:56.706Z,27.27
2023-02-15T15:02:26.710Z,26.58
2023-02-15T15:04:53.071Z,27.33
2023-02-15T15:07:27.904Z,25.02
2023-02-15T15:10:17.326Z,25.63
2023-02-15T15:12:56.812Z,26.83
2023-02-15T15:15:30.465Z,26.70
2023-02-15T15:20:27.792Z,25.73
2023-02-15T15:23:18.759Z,26.98
2023-02-15T15:25:46.905Z,27.60
2023-02-15T15:28:32.336Z,27.75
2023-02-15T15:31:01.913Z,27.15
2023-02-15T15:33:32.412Z,29.45
2023-02-15T15:36:33.434Z,28.00
2023-02-15T15:42:02.271Z,27.30
2023-02-15T15:44:54.460Z,26.70
2023-02-15T15:47:36.458Z,28.05
2023-02-15T15:50:06.477Z,25.98
2023-02-15T15:52:32.866Z,25.85
2023-02-15T15:55:09.032Z,27.00
2023-02-15T15:57:41.044Z,27.38
2023-02-15T16:00:31.437Z,25.80
2023-02-15T16:03:04.921Z,26.20
2023-02-15T16:05:40.447Z,27.27
2023-02-15T16:08:19.644Z,26.40
2023-02-15T16:10:46.213Z,27.02
2023-02-15T16:13:13.706Z,27.25
2023-02-15T16:15:45.016Z,27.55
2023-02-15T16:18:25.869Z,27.02
2023-02-15T16:21:04.942Z,25.55
2023-02-15T16:23:37.461Z,28.48
2023-02-15T16:26:27.012Z,29.15
2023-02-15T16:28:54.687Z,27.17
2023-02-15T16:31:21.829Z,24.50
2023-02-15T16:33:59.970Z,26.35
2023-02-15T16:36:28.478Z,26.95
2023-02-15T16:38:57.665Z,26.42
2023-02-15T16:41:30.827Z,25.92
2023-02-15T16:44:01.004Z,26.80
2023-02-15T16:46:40.837Z,27.45
2023-02-15T16:49:18.410Z,28.95
2023-02-15T16:51:45.426Z,27.80
2023-02-15T16:54:20.655Z,26.58
2023-02-15T16:56:47.329Z,26.00
2023-02-15T16:59:22.834Z,27.08
2023-02-15T17:01:54.576Z,26.88
2023-02-15T17:04:31.376Z,26.63
2023-02-15T17:07:27.094Z,25.15
2023-02-15T17:10:01.906Z,27.77
2023-02-15T17:12:46.747Z,26.58
2023-02-15T17:17:39.711Z,25.13
2023-02-15T17:20:14.390Z,27.77
2023-02-15T17:22:41.098Z,25.80
2023-02-15T17:25:29.868Z,28.55
2023-02-15T17:27:58.422Z,27.15
2023-02-15T17:30:30.898Z,26.95
2023-02-15T17:33:03.533Z,27.40
2023-02-15T17:35:30.910Z,27.77
2023-02-15T17:38:06.489Z,27.83
2023-02-15T17:40:42.980Z,28.30
2023-02-15T17:43:10.480Z,27.48
2023-02-15T17:45:46.175Z,27.42
2023-02-15T17:48:19.674Z,27.25
2023-02-15T17:50:50.050Z,26.05
2023-02-15T17:53:19.133Z,27.98
2023-02-15T17:55:46.078Z,26.73
2023-02-15T17:58:16.793Z,27.30
2023-02-15T18:00:44.817Z,26.88
2023-02-15T18:03:12.308Z,27.85
2023-02-15T18:05:38.841Z,24.40
2023-02-15T18:08:06.459Z,27.58
2023-02-15T18:10:32.877Z,25.27
2023-02-15T18:13:11.151Z,25.38
2023-02-15T18:15:37.573Z,27.48
2023-02-15T18:18:03.995Z,29.63
2023-02-15T18:20:39.958Z,26.75
2023-02-15T18:23:06.449Z,27.30
2023-02-15T18:25:32.889Z,25.80
2023-02-15T18:27:59.321Z,27.38
2023-02-15T18:30:26.115Z,26.55
2023-02-15T18:33:00.437Z,24.90
2023-02-15T18:35:29.933Z,25.15
2023-02-15T18:37:56.722Z,26.58
2023-02-15T18:40:25.743Z,24.30
2023-02-15T18:42:52.277Z,25.85
2023-02-15T18:45:37.240Z,24.98
2023-02-15T18:48:04.662Z,21.75
2023-02-15T18:50:33.290Z,20.38
2023-02-15T18:53:03.707Z,19.70
2023-02-15T18:55:30.156Z,20.42
2023-02-15T18:57:57.300Z,25.77
2023-02-15T19:00:42.087Z,26.27
2023-02-15T19:03:37.860Z,25.17
2023-02-15T19:06:04.398Z,27.45
2023-02-15T19:08:57.897Z,24.95
2023-02-15T19:11:24.528Z,23.88
2023-02-15T19:16:36.007Z,22.33
2023-02-15T19:19:02.659Z,18.75
2023-02-15T19:21:38.135Z,21.45
2023-02-15T19:24:07.113Z,25.98
2023-02-15T19:26:45.536Z,26.75
2023-02-15T19:29:13.664Z,20.33
2023-02-15T19:31:40.733Z,23.77
2023-02-15T19:34:18.649Z,25.02
2023-02-15T19:36:46.750Z,25.92
2023-02-15T19:39:48.088Z,23.52
2023-02-15T19:42:32.106Z,24.05
2023-02-15T19:45:02.167Z,26.33
2023-02-15T19:47:46.725Z,21.42
2023-02-15T19:50:15.276Z,23.27
2023-02-15T19:52:42.915Z,24.27
2023-02-15T19:57:53.630Z,23.10
2023-02-15T20:00:26.629Z,27.77
2023-02-15T20:02:53.627Z,27.00
2023-02-15T20:05:34.951Z,23.80
2023-02-15T20:08:30.785Z,21.63
2023-02-15T20:11:10.953Z,19.40
2023-02-15T20:13:37.683Z,22.05
2023-02-15T20:16:11.385Z,20.92
2023-02-15T20:18:38.708Z,22.73
2023-02-15T20:21:21.953Z,18.77
2023-02-15T20:23:53.105Z,23.48
2023-02-15T20:26:30.131Z,23.58
2023-02-15T20:29:00.410Z,24.20
2023-02-15T20:31:32.746Z,22.48
2023-02-15T20:34:05.857Z,28.10
2023-02-15T20:36:37.391Z,28.30
2023-02-15T20:39:27.582Z,30.13
2023-02-15T20:42:00.723Z,25.35
2023-02-15T20:44:36.580Z,23.73
2023-02-15T20:49:39.543Z,26.02
2023-02-15T20:54:50.430Z,22.33
2023-02-15T20:57:20.098Z,25.35
2023-02-15T20:59:49.006Z,22.00
2023-02-15T21:02:19.364Z,17.23
2023-02-15T21:04:52.847Z,20.70
2023-02-15T21:07:20.555Z,21.73
2023-02-15T21:09:53.214Z,18.88
2023-02-15T21:12:20.767Z,20.55
2023-02-15T21:15:04.508Z,21.23
2023-02-15T21:17:37.132Z,20.20
2023-02-15T21:20:03.622Z,22.33
2023-02-15T21:22:45.153Z,25.17
2023-02-15T21:25:16.663Z,24.90
2023-02-15T21:27:49.006Z,21.40
2023-02-15T21:30:16.409Z,17.48
2023-02-15T21:32:42.906Z,23.60
2023-02-15T21:35:11.204Z,24.23
2023-02-15T21:37:38.234Z,24.30
2023-02-15T21:40:21.577Z,25.02
2023-02-15T21:42:48.316Z,24.05
2023-02-15T21:45:18.655Z,23.08
2023-02-15T21:47:52.487Z,25.90
2023-02-15T21:50:24.242Z,26.35
2023-02-15T21:53:00.648Z,25.35
2023-02-15T21:55:38.536Z,24.65
2023-02-15T21:58:09.408Z,27.10
2023-02-15T22:00:46.832Z,24.98
2023-02-15T22:03:13.492Z,25.23
2023-02-15T22:05:46.060Z,25.35
2023-02-15T22:08:42.786Z,23.08
2023-02-15T22:11:16.269Z,26.40
2023-02-15T22:13:43.552Z,23.05
2023-02-15T22:16:20.139Z,19.52
2023-02-15T22:21:29.623Z,21.20
2023-02-15T22:24:03.942Z,22.40
2023-02-15T22:26:42.725Z,23.08
2023-02-15T22:29:21.357Z,23.38
2023-02-15T22:31:48.799Z,21.65
2023-02-15T22:34:29.842Z,22.15
2023-02-15T22:36:59.624Z,19.98
2023-02-15T22:39:27.407Z,19.45
2023-02-15T22:42:09.714Z,22.92
2023-02-15T22:44:36.160Z,24.40
2023-02-15T22:47:02.633Z,23.67
2023-02-15T22:49:35.161Z,24.25
2023-02-15T22:52:01.642Z,24.05
2023-02-15T22:54:32.808Z,25.33
2023-02-15T22:57:05.762Z,22.75
2023-02-15T22:59:42.825Z,23.50
2023-02-15T23:02:16.184Z,22.85
2023-02-15T23:04:42.842Z,23.00
2023-02-15T23:07:12.806Z,23.00
2023-02-15T23:09:46.482Z,23.45
2023-02-15T23:12:33.770Z,26.27
2023-02-15T23:15:00.639Z,23.33
2023-02-15T23:17:27.090Z,21.48
2023-02-15T23:19:59.129Z,23.30
2023-02-15T23:22:26.454Z,24.13
2023-02-15T23:25:03.264Z,23.42
2023-02-15T23:27:33.840Z,22.52
2023-02-15T23:30:02.842Z,22.73
2023-02-15T23:32:32.391Z,22.33
2023-02-15T23:34:58.930Z,23.40
2023-02-15T23:37:28.134Z,22.58
2023-02-15T23:39:59.477Z,21.85
2023-02-15T23:45:03.792Z,21.00
2023-02-15T23:47:32.829Z,21.75
2023-02-15T23:49:59.237Z,21.52
2023-02-15T23:52:28.408Z,20.40
2023-02-15T23:54:54.820Z,21.05
2023-02-15T23:57:21.250Z,19.13
2023-02-15T23:59:54.104Z,22.60
